Time;durP1;ratioP1;P1;durP2;ratioP2;P2;SDS_P1;SDS_P2;PMS_P1;PMS_P2;Temp;Humidity;BMP_temperature;BMP_pressure;BME280_temperature;BME280_humidity;BME280_pressure;Samples;Min_cycle;Max_cycle;Signal;HPM_P1;HPM_P2
2024/02/22 00:01:58;;;;;;;32.23;11.20;;;12.00;99.90;;;12.20;100.00;99682.53;4971690;28;20126;-70
2024/02/22 00:04:27;;;;;;;34.13;12.25;;;12.00;99.90;;;12.24;100.00;99681.53;4971802;28;20337;-70
2024/02/22 00:06:55;;;;;;;34.97;12.00;;;11.90;99.90;;;12.24;100.00;99691.25;4971816;28;20043;-70
2024/02/22 00:09:24;;;;;;;46.60;11.98;;;12.00;99.90;;;12.21;100.00;99680.78;4972184;28;20070;-70
2024/02/22 00:11:52;;;;;;;41.55;12.88;;;11.90;99.90;;;12.23;100.00;99681.59;4975077;28;20093;-70
2024/02/22 00:14:21;;;;;;;44.28;12.32;;;11.90;99.90;;;12.23;100.00;99677.13;4975144;28;20748;-70
2024/02/22 00:16:51;;;;;;;46.95;12.25;;;12.00;99.90;;;12.15;100.00;99651.78;4975630;28;20051;-70
2024/02/22 00:19:19;;;;;;;51.77;14.37;;;11.90;99.90;;;12.18;100.00;99678.19;4975140;28;20053;-74
2024/02/22 00:21:49;;;;;;;51.03;14.57;;;11.90;99.90;;;12.22;100.00;99674.53;4975127;28;20475;-70
2024/02/22 00:24:17;;;;;;;50.33;14.00;;;12.00;99.90;;;12.19;100.00;99677.28;4975143;28;20046;-71
2024/02/22 00:26:45;;;;;;;50.75;15.23;;;11.90;99.90;;;12.04;100.00;99636.19;4975160;28;20385;-71
2024/02/22 00:29:14;;;;;;;59.17;14.45;;;12.00;99.90;;;12.21;100.00;99676.34;4975234;28;20561;-70
2024/02/22 00:31:43;;;;;;;57.65;14.25;;;12.00;99.90;;;12.22;100.00;99667.47;4990059;28;20576;-70
2024/02/22 00:34:13;;;;;;;63.80;14.90;;;12.00;99.90;;;12.27;100.00;99665.53;4974817;28;20046;-70
2024/02/22 00:36:42;;;;;;;53.83;13.80;;;12.00;99.90;;;12.27;100.00;99662.88;4974979;28;20073;-69
2024/02/22 00:39:10;;;;;;;55.28;13.88;;;12.00;99.90;;;12.30;100.00;99664.56;4974639;28;20559;-70
2024/02/22 00:41:39;;;;;;;58.45;14.02;;;12.00;99.90;;;12.30;100.00;99659.28;4989801;28;20063;-72
2024/02/22 00:44:08;;;;;;;52.38;12.30;;;12.00;99.90;;;12.35;100.00;99657.38;4974663;28;20046;-70
2024/02/22 00:46:36;;;;;;;60.08;13.20;;;12.10;99.90;;;12.38;100.00;99660.78;4974647;28;20050;-71
2024/02/22 00:49:05;;;;;;;55.70;12.82;;;12.10;99.90;;;12.19;100.00;99624.28;4974595;28;20125;-72
2024/02/22 00:51:35;;;;;;;45.50;11.93;;;12.10;99.90;;;12.30;100.00;99651.31;4974501;28;20454;-70
2024/02/22 00:54:03;;;;;;;51.13;11.73;;;12.00;99.90;;;12.37;100.00;99652.84;4974478;28;20378;-72
2024/02/22 00:56:32;;;;;;;57.13;12.63;;;12.10;99.90;;;12.35;100.00;99644.94;4974689;28;20499;-72
2024/02/22 00:59:02;;;;;;;56.00;13.43;;;12.10;99.90;;;12.43;100.00;99645.59;4974420;28;20047;-70
2024/02/22 01:01:31;;;;;;;58.30;13.63;;;12.10;99.90;;;12.33;100.00;99646.78;4989711;28;20479;-69
2024/02/22 01:04:00;;;;;;;70.50;16.05;;;12.10;99.90;;;12.33;100.00;99633.53;4989380;28;20134;-70
2024/02/22 01:06:30;;;;;;;81.60;16.77;;;12.10;99.90;;;12.25;100.00;99637.34;4974307;28;20106;-72
2024/02/22 01:09:00;;;;;;;72.10;15.30;;;12.00;99.90;;;12.33;100.00;99636.19;4974803;28;20051;-71
2024/02/22 01:11:29;;;;;;;76.78;16.85;;;12.00;99.90;;;12.04;100.00;99593.78;4973207;28;20423;-71
2024/02/22 01:13:58;;;;;;;70.97;16.38;;;12.00;99.90;;;12.06;100.00;99601.72;4974258;28;20470;-71
2024/02/22 01:16:27;;;;;;;77.82;16.15;;;12.00;99.90;;;12.23;100.00;99639.19;4974155;28;20129;-71
2024/02/22 01:18:56;;;;;;;66.22;15.80;;;12.00;99.90;;;12.29;100.00;99623.09;4974283;28;20042;-72
2024/02/22 01:21:24;;;;;;;63.75;16.33;;;12.00;99.90;;;12.29;100.00;99605.38;4973245;28;20475;-71
2024/02/22 01:23:53;;;;;;;70.63;15.35;;;12.00;99.90;;;12.28;100.00;99614.25;4973797;28;20448;-72
2024/02/22 01:26:23;;;;;;;62.47;15.65;;;12.00;99.90;;;12.26;100.00;99612.56;4989054;28;20055;-70
2024/02/22 01:28:51;;;;;;;83.40;17.10;;;12.00;99.90;;;12.26;100.00;99612.56;4973833;28;20050;-71
2024/02/22 01:31:20;;;;;;;77.90;15.77;;;12.00;99.90;;;12.33;100.00;99604.34;4972824;28;20042;-72
2024/02/22 01:33:48;;;;;;;73.55;15.90;;;12.00;99.90;;;12.27;100.00;99604.53;4973661;28;20051;-71
2024/02/22 01:36:17;;;;;;;83.47;15.63;;;12.00;99.90;;;12.20;100.00;99603.00;4973627;28;20046;-70
2024/02/22 01:38:45;;;;;;;79.72;16.05;;;12.00;99.90;;;12.22;100.00;99595.00;4973963;28;20042;-72
2024/02/22 01:41:14;;;;;;;75.85;14.82;;;12.00;99.90;;;12.21;100.00;99594.16;4973963;28;20454;-71
2024/02/22 01:43:45;;;;;;;71.00;14.45;;;12.00;99.90;;;12.23;100.00;99591.47;4988864;28;20058;-71
2024/02/22 01:46:13;;;;;;;82.82;16.58;;;11.90;99.90;;;12.23;100.00;99599.41;4988990;28;20062;-70
2024/02/22 01:48:42;;;;;;;78.65;15.63;;;11.90;99.90;;;12.31;100.00;99603.53;4988586;28;20050;-71
2024/02/22 01:51:11;;;;;;;87.97;16.38;;;12.00;99.90;;;12.30;100.00;99590.34;4973400;28;20046;-71
2024/02/22 01:53:40;;;;;;;83.40;14.93;;;12.00;99.90;;;12.36;100.00;99584.84;4973440;28;20050;-71
2024/02/22 01:56:09;;;;;;;91.47;16.70;;;12.10;99.90;;;12.24;100.00;99566.66;4973222;28;20078;-70
2024/02/22 01:58:41;;;;;;;81.50;14.65;;;12.00;99.90;;;12.28;100.00;99568.31;4973483;28;20081;-71
2024/02/22 02:01:23;;;;;;;72.93;13.98;;;12.00;99.90;;;12.19;100.00;99576.56;4988527;28;20081;-70
2024/02/22 02:03:52;;;;;;;77.43;14.52;;;11.90;99.90;;;12.22;100.00;99585.28;4973468;28;20439;-71
2024/02/22 02:06:21;;;;;;;81.50;14.98;;;12.00;99.90;;;12.19;100.00;99568.63;4973477;28;20054;-71
2024/02/22 02:08:51;;;;;;;82.10;15.40;;;12.00;99.90;;;12.21;100.00;99562.34;4973076;28;20041;-73
2024/02/22 02:11:19;;;;;;;80.97;14.18;;;11.90;99.90;;;12.27;100.00;99562.13;4973061;28;20054;-70
2024/02/22 02:13:47;;;;;;;84.55;15.95;;;12.00;99.90;;;12.22;100.00;99563.19;4973068;28;20544;-68
2024/02/22 02:16:16;;;;;;;68.82;14.43;;;12.00;99.90;;;12.29;100.00;99556.81;4972938;28;20066;-71
2024/02/22 02:18:46;;;;;;;78.97;14.55;;;12.00;99.90;;;12.30;100.00;99558.53;4973433;28;20097;-68
2024/02/22 02:21:26;;;;;;;74.03;14.77;;;12.00;99.90;;;12.27;100.00;99548.03;4972914;28;20050;-69
2024/02/22 02:24:13;;;;;;;83.53;16.33;;;12.00;99.90;;;12.20;100.00;99550.00;4973085;28;20051;-69
2024/02/22 02:26:43;;;;;;;79.90;16.15;;;11.90;99.90;;;12.20;100.00;99551.78;4972864;28;20043;-70
2024/02/22 02:29:14;;;;;;;82.75;14.73;;;11.90;99.90;;;12.15;100.00;99541.34;4972846;28;20039;-70
2024/02/22 02:31:42;;;;;;;82.80;15.27;;;11.90;99.90;;;12.25;100.00;99552.53;4973176;28;20121;-69
2024/02/22 02:34:11;;;;;;;71.97;14.30;;;12.00;99.90;;;12.27;100.00;99550.69;4972589;28;20035;-69
2024/02/22 02:36:39;;;;;;;93.32;15.63;;;12.00;99.90;;;12.24;100.00;99549.00;4972576;28;20134;-72
2024/02/22 02:39:08;;;;;;;80.55;15.65;;;12.00;99.90;;;12.22;100.00;99545.53;4972627;28;20039;-70
2024/02/22 02:41:37;;;;;;;76.70;15.25;;;12.00;99.90;;;12.24;100.00;99551.63;4972749;28;20460;-69
2024/02/22 02:44:07;;;;;;;85.75;15.80;;;11.90;99.90;;;12.24;100.00;99540.16;4972863;28;20043;-69
2024/02/22 02:46:35;;;;;;;84.07;14.50;;;12.00;99.90;;;12.10;100.00;99553.00;4987678;28;20536;-70
2024/02/22 02:49:04;;;;;;;87.55;14.63;;;11.90;99.90;;;12.17;100.00;99541.28;4972697;28;20472;-70
2024/02/22 02:51:32;;;;;;;94.57;15.90;;;11.90;99.90;;;12.05;100.00;99529.28;4972984;28;20065;-70
2024/02/22 02:54:01;;;;;;;85.15;15.70;;;11.80;99.90;;;11.86;100.00;99490.19;4987419;28;20531;-69
2024/02/22 02:56:31;;;;;;;87.38;15.10;;;11.80;99.90;;;12.06;100.00;99524.88;4972284;28;20118;-71
2024/02/22 02:59:00;;;;;;;92.20;17.58;;;11.80;99.90;;;11.73;100.00;99464.06;4972197;28;20046;-70
2024/02/22 03:01:30;;;;;;;86.60;14.95;;;11.80;99.90;;;12.09;100.00;99514.16;4987444;28;20086;-70
2024/02/22 03:04:00;;;;;;;82.10;15.00;;;11.80;99.90;;;12.06;100.00;99511.63;4972550;28;20155;-71
2024/02/22 03:06:28;;;;;;;79.97;15.27;;;11.80;99.90;;;12.17;100.00;99515.66;4972159;28;20408;-69
2024/02/22 03:08:56;;;;;;;73.85;13.77;;;11.90;99.90;;;12.12;100.00;99506.97;4972189;28;20311;-71
2024/02/22 03:11:25;;;;;;;78.45;15.63;;;11.80;99.90;;;12.12;100.00;99503.44;4972083;28;20062;-70
2024/02/22 03:13:54;;;;;;;84.78;16.05;;;11.90;99.90;;;12.09;100.00;99495.59;4972148;28;20039;-69
2024/02/22 03:16:24;;;;;;;83.25;15.07;;;11.90;99.90;;;12.07;100.00;99500.09;4971970;28;20451;-69
2024/02/22 03:18:54;;;;;;;82.07;15.48;;;11.80;99.90;;;12.16;100.00;99500.66;4972064;28;20050;-70
2024/02/22 03:21:23;;;;;;;89.97;14.57;;;11.90;99.90;;;12.11;100.00;99485.81;4972278;28;20043;-70
2024/02/22 03:23:53;;;;;;;68.68;13.60;;;11.90;99.90;;;12.13;100.00;99490.16;4972728;28;20084;-70
2024/02/22 03:26:23;;;;;;;77.68;13.07;;;11.90;99.90;;;12.21;100.00;99493.44;4972535;28;20381;-70
2024/02/22 03:28:52;;;;;;;76.82;13.98;;;11.90;99.90;;;11.50;100.00;99365.06;4972311;28;20050;-69
2024/02/22 03:31:22;;;;;;;76.88;14.07;;;11.90;99.90;;;12.22;100.00;99483.69;4971974;28;20473;-69
2024/02/22 03:33:51;;;;;;;79.45;14.88;;;11.90;99.90;;;12.19;100.00;99475.84;4972209;28;20134;-69
2024/02/22 03:36:22;;;;;;;75.85;13.60;;;11.90;99.90;;;12.21;100.00;99461.63;4971979;28;20126;-69
2024/02/22 03:38:53;;;;;;;74.50;15.25;;;12.00;99.90;;;12.22;100.00;99467.78;4987133;28;20452;-69
2024/02/22 03:41:25;;;;;;;;;;;12.00;99.90;;;12.28;100.00;99467.56;4972608;28;20392;-69
2024/02/22 03:43:53;;;;;;;73.63;14.52;;;12.00;99.90;;;12.25;100.00;99462.38;4986930;28;19922;-70
2024/02/22 03:46:21;;;;;;;61.70;12.32;;;12.00;99.90;;;12.22;100.00;99451.88;4974987;28;20157;-69
2024/02/22 03:48:50;;;;;;;66.97;13.15;;;12.00;99.90;;;12.32;100.00;99454.16;4975986;28;20101;-70
2024/02/22 03:51:22;;;;;;;68.45;13.32;;;12.00;99.90;;;12.28;100.00;99446.34;4975882;28;20043;-69
2024/02/22 03:53:50;;;;;;;71.63;12.80;;;12.00;99.90;;;12.27;100.00;99452.59;4975618;28;20050;-70
2024/02/22 03:56:19;;;;;;;60.15;12.60;;;12.00;99.90;;;12.31;100.00;99456.88;4975662;28;20392;-69
2024/02/22 03:58:47;;;;;;;72.25;12.50;;;12.00;99.90;;;12.32;100.00;99446.22;4975795;28;20070;-69
2024/02/22 04:01:16;;;;;;;74.60;13.10;;;12.00;99.90;;;12.32;100.00;99440.03;4975725;28;20085;-71
2024/02/22 04:03:44;;;;;;;70.95;13.23;;;12.00;99.90;;;12.31;100.00;99433.00;4975526;28;20043;-70
2024/02/22 04:06:13;;;;;;;55.70;11.63;;;12.00;99.90;;;12.29;100.00;99432.19;4975402;28;20043;-70
2024/02/22 04:08:44;;;;;;;66.93;12.98;;;12.00;99.90;;;12.27;100.00;99437.53;4975429;28;20043;-71
2024/02/22 04:11:12;;;;;;;64.05;13.52;;;12.00;99.90;;;12.24;100.00;99431.47;4975305;28;20508;-70
2024/02/22 04:13:42;;;;;;;63.33;11.93;;;12.00;99.90;;;12.09;100.00;99418.75;4975215;28;20117;-71
2024/02/22 04:16:11;;;;;;;60.28;11.35;;;11.90;99.90;;;12.21;100.00;99432.47;4975207;28;20478;-70
2024/02/22 04:18:39;;;;;;;69.50;11.98;;;11.90;99.90;;;12.17;100.00;99420.25;4975465;28;20106;-69
2024/02/22 04:21:08;;;;;;;57.92;12.27;;;11.90;99.90;;;12.14;100.00;99427.41;4975591;28;20038;-70
2024/02/22 04:23:36;;;;;;;58.92;11.75;;;11.90;99.90;;;12.16;100.00;99418.50;4975012;28;20047;-70
2024/02/22 04:26:07;;;;;;;57.55;12.25;;;11.90;99.90;;;12.11;100.00;99423.09;4974992;28;20058;-70
2024/02/22 04:28:35;;;;;;;;;;;11.80;99.90;;;12.10;100.00;99404.59;4975785;28;20126;-69
2024/02/22 04:31:04;;;;;;;63.40;12.45;;;11.80;99.90;;;12.09;100.00;99408.16;4975280;28;19929;-70
2024/02/22 04:33:33;;;;;;;64.50;12.30;;;11.80;99.90;;;12.08;100.00;99409.94;4974859;28;20786;-69
2024/02/22 04:36:01;;;;;;;58.58;11.57;;;11.80;99.90;;;12.03;100.00;99414.53;4974926;28;20086;-69
2024/02/22 04:38:30;;;;;;;67.05;12.65;;;11.70;99.90;;;12.02;100.00;99407.47;4974664;28;20420;-70
2024/02/22 04:41:00;;;;;;;67.53;12.50;;;11.80;99.90;;;11.91;100.00;99398.16;4974758;28;20492;-71
2024/02/22 04:43:30;;;;;;;63.33;14.37;;;11.70;99.90;;;11.98;100.00;99410.31;4975020;28;20117;-69
2024/02/22 04:45:59;;;;;;;64.55;12.77;;;11.70;99.90;;;11.97;100.00;99398.81;4974717;28;20378;-69
2024/02/22 04:48:27;;;;;;;59.60;12.30;;;11.70;99.90;;;11.98;100.00;99394.41;4989844;28;20613;-69
2024/02/22 04:50:56;;;;;;;54.65;11.73;;;11.70;99.90;;;12.00;100.00;99392.56;4974821;28;20121;-70
2024/02/22 04:53:24;;;;;;;58.22;11.77;;;11.70;99.90;;;12.03;100.00;99379.19;4974751;28;20054;-69
2024/02/22 04:55:53;;;;;;;55.85;12.48;;;11.70;99.90;;;12.08;100.00;99380.78;4974151;28;20124;-70
2024/02/22 04:58:21;;;;;;;55.20;11.32;;;11.70;99.90;;;12.03;100.00;99377.44;4974379;28;20049;-71
2024/02/22 05:00:51;;;;;;;54.67;11.95;;;11.70;99.90;;;12.03;100.00;99376.56;4974642;28;20047;-69
2024/02/22 05:03:19;;;;;;;59.20;12.47;;;11.70;99.90;;;11.97;100.00;99372.34;4974424;28;20101;-70
2024/02/22 05:05:47;;;;;;;60.58;13.13;;;11.70;99.90;;;12.00;100.00;99372.22;4974244;28;20684;-69
2024/02/22 05:08:17;;;;;;;55.95;12.40;;;11.70;99.90;;;12.03;100.00;99365.94;4974195;28;20500;-69
2024/02/22 05:10:46;;;;;;;52.97;12.27;;;11.70;99.90;;;12.09;100.00;99360.44;4974115;28;20051;-71
2024/02/22 05:13:14;;;;;;;58.45;11.25;;;11.80;99.90;;;12.12;100.00;99361.19;4974159;28;20495;-69
2024/02/22 05:15:43;;;;;;;59.35;12.77;;;11.80;99.90;;;12.09;100.00;99363.09;4974417;28;20049;-70
2024/02/22 05:18:12;;;;;;;63.63;11.82;;;11.80;99.90;;;12.00;100.00;99350.19;4973947;28;20440;-71
2024/02/22 05:20:41;;;;;;;61.53;11.68;;;11.80;99.90;;;11.90;100.00;99346.09;4974664;28;20058;-70
2024/02/22 05:23:10;;;;;;;61.45;12.60;;;11.70;99.90;;;11.83;100.00;99339.28;4974501;28;20046;-70
2024/02/22 05:25:41;;;;;;;68.05;12.57;;;11.70;99.90;;;11.79;100.00;99347.31;4974248;28;20035;-71
2024/02/22 05:28:09;;;;;;;50.95;12.23;;;11.60;99.90;;;11.86;100.00;99340.06;4974183;28;20039;-69
2024/02/22 05:30:38;;;;;;;61.67;11.55;;;11.60;99.90;;;11.88;100.00;99338.22;4973784;28;20597;-70
2024/02/22 05:33:09;;;;;;;53.03;11.20;;;11.60;99.90;;;11.93;100.00;99330.09;4973997;28;20511;-69
2024/02/22 05:35:39;;;;;;;57.13;11.80;;;11.60;99.90;;;11.86;100.00;99325.94;4973848;28;20047;-71
2024/02/22 05:38:07;;;;;;;59.00;11.50;;;11.60;99.90;;;11.86;100.00;99320.63;4973999;28;20082;-69
2024/02/22 05:40:38;;;;;;;56.67;12.10;;;11.60;99.90;;;11.89;100.00;99331.97;4974181;28;20377;-69
2024/02/22 05:43:06;;;;;;;55.92;11.90;;;11.60;99.90;;;11.92;100.00;99326.59;4973917;28;20039;-70
2024/02/22 05:45:41;;;;;;;54.53;11.38;;;11.60;99.90;;;11.95;100.00;99325.59;4973619;28;20047;-70
2024/02/22 05:48:10;;;;;;;52.60;10.70;;;11.60;99.90;;;11.90;100.00;99309.88;4973863;28;20121;-69
2024/02/22 05:50:39;;;;;;;51.67;11.85;;;11.70;99.90;;;12.00;100.00;99311.28;4973719;28;20122;-69
2024/02/22 05:53:09;;;;;;;58.40;11.65;;;11.70;99.90;;;11.94;100.00;99311.50;4973638;28;20042;-70
2024/02/22 05:55:37;;;;;;;53.47;11.87;;;11.70;99.90;;;11.97;100.00;99297.28;4973572;28;20170;-71
2024/02/22 05:58:06;;;;;;;45.47;11.55;;;11.70;99.90;;;11.98;100.00;99278.66;4973468;28;20302;-71
2024/02/22 06:00:33;;;;;;;53.05;12.13;;;11.70;99.90;;;11.96;100.00;99288.47;4973315;28;20461;-71
2024/02/22 06:03:04;;;;;;;49.92;13.32;;;11.70;99.90;;;11.93;100.00;99277.97;4973451;28;20405;-69
2024/02/22 06:05:39;;;;;;;50.92;12.50;;;11.60;99.90;;;11.92;100.00;99268.31;4973480;28;20562;-69
2024/02/22 06:08:07;;;;;;;45.85;11.60;;;11.70;99.90;;;11.89;100.00;99276.34;4972444;28;20070;-69
2024/02/22 06:10:36;;;;;;;48.65;13.15;;;11.70;99.90;;;11.97;100.00;99270.78;4973254;28;20070;-71
2024/02/22 06:13:05;;;;;;;52.35;12.68;;;11.70;99.90;;;11.76;100.00;99236.19;4972980;28;20134;-69
2024/02/22 06:15:33;;;;;;;50.72;14.07;;;11.70;99.90;;;11.98;100.00;99269.88;4973051;28;20127;-70
2024/02/22 06:18:01;;;;;;;56.80;14.05;;;11.70;99.90;;;11.98;100.00;99253.97;4988002;28;20059;-70
2024/02/22 06:20:31;;;;;;;49.38;12.93;;;11.70;99.90;;;11.99;100.00;99245.97;4973237;28;20039;-69
2024/02/22 06:23:01;;;;;;;48.88;13.05;;;11.70;99.90;;;12.02;100.00;99259.09;4973103;28;20382;-71
2024/02/22 06:25:29;;;;;;;43.63;11.80;;;11.80;99.90;;;12.02;100.00;99247.66;4972875;28;20047;-69
2024/02/22 06:27:58;;;;;;;44.53;12.13;;;11.80;99.90;;;12.13;100.00;99245.47;4973050;28;20315;-70
2024/02/22 06:30:26;;;;;;;47.92;11.93;;;11.80;99.90;;;12.06;100.00;99218.31;4972957;28;20119;-70
2024/02/22 06:32:54;;;;;;;50.67;12.93;;;11.90;99.90;;;12.15;100.00;99228.59;4972633;28;20101;-69
2024/02/22 06:35:23;;;;;;;45.97;12.63;;;11.90;99.90;;;12.07;100.00;99219.19;4972880;28;20047;-70
2024/02/22 06:37:52;;;;;;;46.67;11.43;;;11.80;99.90;;;12.10;100.00;99217.28;4972260;28;20051;-70
2024/02/22 06:40:21;;;;;;;44.03;11.52;;;11.80;99.90;;;12.11;100.00;99203.13;4973138;28;20042;-70
2024/02/22 06:42:50;;;;;;;52.07;13.73;;;11.80;99.90;;;12.11;100.00;99186.34;4972856;28;20038;-69
2024/02/22 06:45:23;;;;;;;41.47;12.95;;;11.90;99.90;;;12.10;100.00;99171.38;4972473;28;20105;-69
2024/02/22 06:47:52;;;;;;;42.05;12.63;;;11.80;99.90;;;11.91;100.00;99134.09;4972462;28;20050;-70
2024/02/22 06:50:20;;;;;;;46.33;13.02;;;11.90;99.90;;;12.07;100.00;99166.19;4972859;28;20039;-70
2024/02/22 06:52:51;;;;;;;32.97;12.63;;;11.90;99.90;;;12.13;100.00;99172.13;4972593;28;20053;-70
2024/02/22 06:55:24;;;;;;;44.92;12.43;;;11.90;99.90;;;12.14;100.00;99183.56;4972709;28;20043;-69
2024/02/22 06:57:53;;;;;;;36.45;13.25;;;11.90;99.90;;;12.15;100.00;99180.00;4972663;28;20051;-70
2024/02/22 07:00:22;;;;;;;37.22;14.23;;;11.90;99.90;;;12.14;100.00;99178.28;4972762;28;20070;-70
2024/02/22 07:02:50;;;;;;;43.95;13.50;;;11.90;99.90;;;12.07;100.00;99161.75;4972743;28;20050;-70
2024/02/22 07:05:18;;;;;;;33.22;11.60;;;11.90;99.90;;;12.09;100.00;99177.59;4987184;28;20050;-72
2024/02/22 07:07:47;;;;;;;36.38;12.60;;;11.80;99.90;;;12.05;100.00;99163.59;4972081;28;20043;-71
2024/02/22 07:10:15;;;;;;;37.38;13.25;;;11.80;99.90;;;12.02;100.00;99152.25;4987321;28;20053;-70
2024/02/22 07:12:46;;;;;;;35.67;12.13;;;11.80;99.90;;;12.08;100.00;99144.09;4972011;28;20061;-70
2024/02/22 07:15:16;;;;;;;29.00;11.00;;;11.80;99.90;;;12.06;100.00;99138.81;4972624;28;20046;-70
2024/02/22 07:17:45;;;;;;;24.33;9.82;;;11.80;99.90;;;12.05;100.00;99130.94;4972661;28;20070;-71
2024/02/22 07:20:14;;;;;;;23.60;9.48;;;11.80;99.90;;;11.37;100.00;99033.72;4972410;28;20049;-70
2024/02/22 07:22:44;;;;;;;26.40;10.15;;;11.70;99.90;;;12.00;100.00;99124.97;4972610;28;20113;-70
2024/02/22 07:25:14;;;;;;;29.60;11.07;;;11.80;99.90;;;11.94;100.00;99109.28;4972037;28;20398;-69
2024/02/22 07:27:43;;;;;;;31.00;12.52;;;11.70;99.90;;;11.86;100.00;99119.31;4970973;28;20055;-72
2024/02/22 07:30:14;;;;;;;28.30;11.27;;;11.60;99.90;;;11.85;100.00;99120.22;4971870;28;20751;-71
2024/02/22 07:32:43;;;;;;;27.63;11.23;;;11.60;99.90;;;11.86;100.00;99106.06;4971141;28;20082;-71
2024/02/22 07:35:13;;;;;;;26.23;10.02;;;11.60;99.90;;;11.86;100.00;99103.41;4971866;28;20047;-70
2024/02/22 07:37:42;;;;;;;28.42;12.38;;;11.60;99.90;;;11.94;100.00;99096.91;4972078;28;20373;-69
2024/02/22 07:40:11;;;;;;;35.22;12.30;;;11.70;99.90;;;11.80;100.00;99088.63;4972342;28;20047;-69
2024/02/22 07:42:41;;;;;;;33.10;13.55;;;11.70;99.90;;;11.90;100.00;99095.31;4971819;28;20126;-69
2024/02/22 07:45:11;;;;;;;33.17;13.02;;;11.70;99.90;;;11.97;100.00;99095.91;4972254;28;20070;-70
2024/02/22 07:47:40;;;;;;;31.75;11.80;;;11.70;99.90;;;11.94;100.00;99091.63;4972369;28;20417;-70
2024/02/22 07:50:10;;;;;;;25.25;10.63;;;11.70;99.90;;;11.96;100.00;99094.19;4986966;28;20050;-70
2024/02/22 07:52:40;;;;;;;29.77;11.18;;;11.80;99.90;;;11.93;100.00;99079.28;4971695;28;20109;-70
2024/02/22 07:55:09;;;;;;;24.88;9.70;;;11.70;99.90;;;11.90;100.00;99074.09;4971633;28;20046;-70
2024/02/22 07:57:38;;;;;;;23.58;10.20;;;11.70;99.90;;;11.85;100.00;99069.88;4971572;28;20035;-71
2024/02/22 08:00:08;;;;;;;18.58;8.38;;;11.70;99.90;;;11.79;100.00;99071.84;4971549;28;20050;-69
2024/02/22 08:02:38;;;;;;;;;;;11.60;99.90;;;11.72;100.00;99065.06;4987350;28;20559;-69
2024/02/22 08:05:09;;;;;;;24.15;9.75;;;11.60;99.90;;;11.75;100.00;99046.41;4971584;28;19926;-70
2024/02/22 08:07:38;;;;;;;18.65;9.90;;;11.60;99.90;;;11.79;100.00;99042.72;4971863;28;20133;-70
2024/02/22 08:10:08;;;;;;;21.73;10.20;;;11.60;99.90;;;11.58;100.00;99034.69;4971520;28;20385;-70
2024/02/22 08:12:36;;;;;;;19.38;9.50;;;11.40;99.90;;;11.57;100.00;99025.91;4971979;28;20500;-69
2024/02/22 08:15:07;;;;;;;21.10;11.50;;;11.40;99.90;;;11.62;100.00;99009.81;4971797;28;20150;-69
2024/02/22 08:17:40;;;;;;;21.60;11.40;;;11.50;99.90;;;11.76;100.00;99003.13;4971800;28;20051;-70
2024/02/22 08:20:11;;;;;;;19.50;10.10;;;11.50;99.90;;;11.78;100.00;98998.63;4971396;28;20043;-71
2024/02/22 08:22:39;;;;;;;22.63;10.40;;;11.60;99.90;;;11.84;100.00;98988.72;4971468;28;20493;-70
2024/02/22 08:25:09;;;;;;;22.05;9.43;;;11.60;99.90;;;11.73;100.00;98982.03;4971549;28;20062;-69
2024/02/22 08:27:38;;;;;;;21.47;10.23;;;11.60;99.90;;;11.71;100.00;98993.63;4971403;28;20062;-71
2024/02/22 08:30:21;;;;;;;16.33;9.10;;;11.50;99.90;;;11.68;100.00;98984.03;4971570;28;20050;-69
2024/02/22 08:32:51;;;;;;;18.00;8.80;;;11.50;99.90;;;11.72;100.00;98975.03;4989533;28;20058;-70
2024/02/22 08:35:19;;;;;;;16.10;8.73;;;11.60;99.90;;;11.71;100.00;98975.09;4974826;28;20504;-70
2024/02/22 08:37:48;;;;;;;16.85;8.63;;;11.60;99.90;;;11.64;100.00;98971.78;4974844;28;20054;-70
2024/02/22 08:40:16;;;;;;;16.48;8.75;;;11.50;99.90;;;11.59;100.00;98952.53;4974655;28;20053;-72
2024/02/22 08:43:02;;;;;;;19.48;8.30;;;11.40;99.90;;;11.70;100.00;98952.19;4974990;28;20057;-71
2024/02/22 08:45:32;;;;;;;16.30;7.65;;;11.50;99.90;;;11.72;100.00;98955.63;4974902;28;20476;-69
2024/02/22 08:48:02;;;;;;;18.10;7.82;;;11.60;99.90;;;11.70;100.00;98946.88;4974647;28;20094;-69
2024/02/22 08:50:31;;;;;;;15.05;7.85;;;11.60;99.90;;;11.87;100.00;98941.75;4975198;28;20115;-69
2024/02/22 08:52:59;;;;;;;15.57;7.68;;;11.70;99.90;;;11.96;100.00;98935.25;4973440;28;20515;-69
2024/02/22 08:55:28;;;;;;;16.38;7.65;;;11.80;99.90;;;12.08;100.00;98926.78;4973695;28;20062;-71
2024/02/22 08:57:56;;;;;;;19.83;7.95;;;11.90;99.90;;;12.11;100.00;98921.34;4974565;28;20051;-70
2024/02/22 09:00:29;;;;;;;16.92;7.25;;;12.00;99.90;;;12.10;100.00;98917.84;4974661;28;20038;-70
2024/02/22 09:02:57;;;;;;;13.43;6.97;;;11.90;99.90;;;12.08;100.00;98903.78;4974327;28;20512;-71
2024/02/22 09:05:27;;;;;;;14.27;7.65;;;12.00;99.90;;;12.19;100.00;98906.00;4974479;28;20503;-70
2024/02/22 09:07:56;;;;;;;17.02;7.90;;;12.00;99.90;;;12.40;100.00;98891.81;4974868;28;20138;-71
2024/02/22 09:10:25;;;;;;;15.25;8.07;;;12.20;99.90;;;12.70;100.00;98898.41;4974682;28;20416;-70
2024/02/22 09:12:53;;;;;;;14.43;7.70;;;12.50;99.90;;;13.03;100.00;98891.63;4974185;28;20047;-69
2024/02/22 09:15:21;;;;;;;15.55;8.48;;;12.80;99.90;;;13.09;100.00;98880.72;4974136;28;20086;-70
2024/02/22 09:17:51;;;;;;;15.43;9.82;;;12.90;99.90;;;13.21;100.00;98887.25;4974372;28;20057;-70
2024/02/22 09:20:19;;;;;;;13.85;8.45;;;13.10;99.90;;;13.36;100.00;98879.44;4974234;28;20070;-71
2024/02/22 09:22:49;;;;;;;14.38;9.40;;;13.20;99.90;;;13.30;100.00;98878.84;4974408;28;20047;-70
2024/02/22 09:25:18;;;;;;;12.80;9.10;;;13.20;99.90;;;13.33;100.00;98876.06;4974584;28;20051;-70
2024/02/22 09:27:46;;;;;;;13.77;8.57;;;13.20;99.90;;;13.12;100.00;98862.03;4974405;28;20046;-69
2024/02/22 09:30:15;;;;;;;11.05;8.90;;;13.00;99.90;;;13.24;100.00;98865.88;4973847;28;20744;-69
2024/02/22 09:32:43;;;;;;;12.90;8.48;;;13.10;99.90;;;13.34;100.00;98837.94;4974352;28;20062;-69
2024/02/22 09:35:12;;;;;;;13.50;8.82;;;13.20;99.90;;;13.11;100.00;98820.47;4973939;28;20574;-70
2024/02/22 09:37:42;;;;;;;13.60;9.23;;;13.00;99.90;;;13.14;100.00;98811.50;4973794;28;20058;-69
2024/02/22 09:40:13;;;;;;;11.98;8.98;;;13.00;99.90;;;13.28;100.00;98806.38;4973587;28;20039;-71
2024/02/22 09:42:41;;;;;;;;;;;13.10;99.90;;;13.15;100.00;98798.16;4973317;28;20047;-71
2024/02/22 09:45:10;;;;;;;8.80;7.90;;;13.10;99.90;;;12.92;100.00;98776.25;4973553;28;20340;-70
2024/02/22 09:47:39;;;;;;;12.77;8.60;;;12.80;99.90;;;12.54;100.00;98801.94;4973950;28;20098;-70
2024/02/22 09:50:09;;;;;;;10.65;8.65;;;12.50;99.90;;;12.38;100.00;98780.56;4973358;28;20050;-70
2024/02/22 09:52:39;;;;;;;11.77;8.75;;;12.30;99.90;;;11.71;100.00;98660.81;4973493;28;20038;-70
2024/02/22 09:55:13;;;;;;;12.27;8.48;;;12.20;99.90;;;12.45;100.00;98778.47;4973508;28;20137;-70
2024/02/22 09:57:41;;;;;;;13.05;8.52;;;12.30;99.90;;;12.23;100.00;98769.78;4973387;28;20412;-70
2024/02/22 10:00:14;;;;;;;9.82;8.82;;;12.10;99.90;;;12.13;100.00;98758.72;4973598;28;20055;-70
2024/02/22 10:02:46;;;;;;;10.50;8.73;;;12.10;99.90;;;12.17;100.00;98765.63;4973315;28;20039;-72
2024/02/22 10:05:16;;;;;;;18.77;9.43;;;12.00;99.90;;;12.33;100.00;98752.53;4973200;28;20070;-70
2024/02/22 10:07:44;;;;;;;10.98;9.23;;;12.10;99.90;;;12.13;100.00;98737.53;4973142;28;20043;-71
2024/02/22 10:10:25;;;;;;;11.98;9.80;;;12.00;99.90;;;11.91;100.00;98718.19;4973008;28;20505;-70
2024/02/22 10:12:53;;;;;;;12.55;9.60;;;11.90;99.90;;;11.92;100.00;98708.47;4973785;28;20047;-71